createdAt,value
2023-04-21T00:00:09.568Z,10.95
2023-04-21T00:02:46.773Z,10.68
2023-04-21T00:05:14.144Z,9.48
2023-04-21T00:07:41.855Z,9.98
2023-04-21T00:10:11.410Z,11.13
2023-04-21T00:12:39.225Z,9.85
2023-04-21T00:15:07.273Z,10.48
2023-04-21T00:17:34.330Z,11.05
2023-04-21T00:20:01.485Z,8.38
2023-04-21T00:22:28.586Z,9.73
2023-04-21T00:24:55.675Z,6.55
2023-04-21T00:27:42.470Z,8.40
2023-04-21T00:30:43.456Z,9.30
2023-04-21T00:33:44.470Z,11.77
2023-04-21T00:36:40.478Z,9.35
2023-04-21T00:39:41.462Z,7.78
2023-04-21T00:42:22.116Z,8.43
2023-04-21T00:44:49.217Z,8.93
2023-04-21T00:47:16.402Z,9.45
2023-04-21T00:49:43.633Z,5.63
2023-04-21T00:52:12.215Z,10.00
2023-04-21T00:54:39.933Z,10.05
2023-04-21T00:57:08.172Z,10.10
2023-04-21T00:59:36.286Z,9.45
2023-04-21T01:02:04.144Z,10.10
2023-04-21T01:04:37.080Z,10.63
2023-04-21T01:07:04.936Z,10.48
2023-04-21T01:09:32.683Z,9.57
2023-04-21T01:12:10.776Z,9.48
2023-04-21T01:14:39.567Z,10.20
2023-04-21T01:17:08.099Z,10.55
2023-04-21T01:19:40.213Z,10.35
2023-04-21T01:22:11.078Z,10.68
2023-04-21T01:24:47.618Z,10.68
2023-04-21T01:27:34.520Z,8.05
2023-04-21T01:30:35.511Z,9.85
2023-04-21T01:33:16.747Z,7.78
2023-04-21T01:36:03.495Z,10.23
2023-04-21T01:39:04.486Z,9.75
2023-04-21T01:41:45.119Z,8.65
2023-04-21T01:44:12.143Z,11.13
2023-04-21T01:46:39.207Z,10.93
2023-04-21T01:49:06.326Z,9.80
2023-04-21T01:51:33.779Z,8.27
2023-04-21T01:54:00.849Z,10.60
2023-04-21T01:56:27.998Z,10.45
2023-04-21T01:58:55.025Z,10.23
2023-04-21T02:01:22.239Z,10.98
2023-04-21T02:03:49.517Z,10.48
2023-04-21T02:06:17.938Z,10.75
2023-04-21T02:08:45.024Z,10.48
2023-04-21T02:11:12.015Z,8.80
2023-04-21T02:13:41.145Z,11.00
2023-04-21T02:16:13.255Z,11.90
2023-04-21T02:18:41.565Z,12.43
2023-04-21T02:21:08.753Z,8.65
2023-04-21T02:23:35.769Z,11.75
2023-04-21T02:26:02.829Z,12.43
2023-04-21T02:28:52.510Z,13.32
2023-04-21T02:31:36.370Z,11.20
2023-04-21T02:34:08.759Z,13.25
2023-04-21T02:36:55.466Z,13.10
2023-04-21T02:39:56.489Z,13.43
2023-04-21T02:42:37.002Z,12.70
2023-04-21T02:45:04.331Z,11.93
2023-04-21T02:47:31.360Z,12.10
2023-04-21T02:49:58.357Z,9.25
2023-04-21T02:52:25.273Z,13.15
2023-04-21T02:54:52.763Z,13.23
2023-04-21T02:57:19.721Z,11.63
2023-04-21T02:59:46.634Z,9.93
2023-04-21T03:02:33.803Z,14.70
2023-04-21T03:05:14.192Z,13.15
2023-04-21T03:07:41.067Z,12.77
2023-04-21T03:10:08.227Z,13.23
2023-04-21T03:12:35.612Z,13.55
2023-04-21T03:15:04.278Z,13.48
2023-04-21T03:17:33.184Z,14.00
2023-04-21T03:20:00.807Z,10.20
2023-04-21T03:22:27.691Z,10.07
2023-04-21T03:24:54.650Z,13.57
2023-04-21T03:27:41.515Z,12.93
2023-04-21T03:30:39.779Z,12.75
2023-04-21T03:33:06.813Z,15.73
2023-04-21T03:35:53.493Z,12.20
2023-04-21T03:39:03.235Z,13.73
2023-04-21T03:41:55.624Z,14.38
2023-04-21T03:44:25.772Z,11.57
2023-04-21T03:46:54.541Z,13.73
2023-04-21T03:49:23.942Z,15.48
2023-04-21T03:51:51.117Z,13.52
2023-04-21T03:54:18.179Z,14.13
2023-04-21T03:56:45.332Z,11.73
2023-04-21T03:59:12.307Z,14.02
2023-04-21T04:01:39.218Z,16.45
2023-04-21T04:04:06.443Z,14.93
2023-04-21T04:06:34.233Z,15.43
2023-04-21T04:09:04.817Z,14.38
2023-04-21T04:11:32.410Z,13.63
2023-04-21T04:14:19.513Z,13.93
2023-04-21T04:17:00.034Z,15.48
2023-04-21T04:19:33.668Z,14.13
2023-04-21T04:22:01.383Z,15.13
2023-04-21T04:24:28.636Z,13.88
2023-04-21T04:27:16.507Z,12.90
2023-04-21T04:30:10.643Z,13.85
2023-04-21T04:32:58.176Z,12.02
2023-04-21T04:38:14.545Z,13.07
2023-04-21T04:40:57.651Z,14.02
2023-04-21T04:43:25.599Z,13.10
2023-04-21T04:45:52.708Z,13.45
2023-04-21T04:48:19.771Z,15.80
2023-04-21T04:50:46.727Z,15.82
2023-04-21T04:53:13.622Z,18.25
2023-04-21T04:55:40.725Z,12.23
2023-04-21T04:58:07.868Z,12.65
2023-04-21T05:00:34.921Z,12.07
2023-04-21T05:03:02.021Z,13.38
2023-04-21T05:05:29.211Z,13.57
2023-04-21T05:07:56.516Z,11.50
2023-04-21T05:10:23.812Z,11.90
2023-04-21T05:13:10.570Z,11.68
2023-04-21T05:16:12.601Z,10.70
2023-04-21T05:18:55.870Z,11.65
2023-04-21T05:21:25.096Z,14.48
2023-04-21T05:23:52.107Z,14.35
2023-04-21T05:26:40.597Z,13.63
2023-04-21T05:29:41.579Z,14.80
2023-04-21T05:32:42.615Z,12.15
2023-04-21T05:35:13.442Z,10.23
2023-04-21T05:38:00.580Z,12.88
2023-04-21T05:41:08.609Z,13.60
2023-04-21T05:43:49.274Z,14.43
2023-04-21T05:46:16.232Z,12.77
2023-04-21T05:48:43.304Z,11.30
2023-04-21T05:51:11.597Z,14.15
2023-04-21T05:53:42.918Z,11.32
2023-04-21T05:56:10.626Z,12.80
2023-04-21T05:58:38.414Z,15.40
2023-04-21T06:01:09.524Z,13.38
2023-04-21T06:03:36.698Z,14.07
2023-04-21T06:06:05.934Z,13.45
2023-04-21T06:08:33.722Z,10.20
2023-04-21T06:11:01.069Z,12.02
2023-04-21T06:13:48.597Z,13.00
2023-04-21T06:16:49.587Z,11.93
2023-04-21T06:19:30.110Z,11.27
2023-04-21T06:21:57.352Z,12.05
2023-04-21T06:24:27.119Z,12.00
2023-04-21T06:26:54.060Z,12.68
2023-04-21T06:29:41.616Z,9.88
2023-04-21T06:32:42.668Z,11.95
2023-04-21T06:35:23.175Z,11.25
2023-04-21T06:37:50.093Z,11.15
2023-04-21T06:40:37.633Z,9.65
2023-04-21T06:43:18.136Z,9.68
2023-04-21T06:45:45.048Z,8.60
2023-04-21T06:48:12.047Z,10.23
2023-04-21T06:50:38.981Z,10.48
2023-04-21T06:53:06.285Z,9.55
2023-04-21T06:55:33.803Z,9.65
2023-04-21T06:58:00.904Z,9.15
2023-04-21T07:00:27.905Z,8.23
2023-04-21T07:02:55.006Z,7.28
2023-04-21T07:05:22.020Z,10.20
2023-04-21T07:07:49.070Z,10.55
2023-04-21T07:10:35.665Z,11.10
2023-04-21T07:13:36.684Z,7.50
2023-04-21T07:16:37.703Z,10.13
2023-04-21T07:19:18.546Z,7.75
2023-04-21T07:21:45.673Z,8.85
2023-04-21T07:24:12.618Z,8.23
2023-04-21T07:26:39.591Z,7.07
2023-04-21T07:29:26.724Z,8.18
2023-04-21T07:32:27.713Z,8.93
2023-04-21T07:35:08.670Z,7.43
2023-04-21T07:37:35.652Z,8.57
2023-04-21T07:40:22.686Z,7.47
2023-04-21T07:43:16.883Z,7.85
2023-04-21T07:45:58.325Z,8.05
2023-04-21T07:48:25.447Z,7.50
2023-04-21T07:50:53.456Z,7.70
2023-04-21T07:53:20.380Z,5.97
2023-04-21T07:55:47.426Z,6.95
2023-04-21T07:58:14.442Z,7.22
2023-04-21T08:00:41.989Z,8.48
2023-04-21T08:03:09.387Z,9.68
2023-04-21T08:05:40.187Z,9.32
2023-04-21T08:08:30.185Z,8.70
2023-04-21T08:11:32.695Z,10.32
2023-04-21T08:14:33.714Z,9.40
2023-04-21T08:17:02.410Z,8.20
2023-04-21T08:19:29.502Z,9.00
2023-04-21T08:21:57.105Z,9.55
2023-04-21T08:24:24.847Z,8.88
2023-04-21T08:26:51.876Z,8.07
2023-04-21T08:29:38.680Z,10.68
2023-04-21T08:32:23.672Z,8.77
2023-04-21T08:34:52.642Z,8.77
2023-04-21T08:37:20.586Z,8.65
2023-04-21T08:39:50.382Z,9.90
2023-04-21T08:42:19.003Z,10.48
2023-04-21T08:44:46.536Z,11.50
2023-04-21T08:47:15.162Z,13.10
2023-04-21T08:49:45.169Z,12.90
2023-04-21T08:52:14.319Z,12.43
2023-04-21T08:54:41.449Z,10.95
2023-04-21T08:57:15.273Z,11.57
2023-04-21T08:59:43.396Z,12.73
2023-04-21T09:02:12.976Z,10.30
2023-04-21T09:04:42.244Z,11.20
2023-04-21T09:07:10.432Z,13.73
2023-04-21T09:09:56.869Z,16.38
2023-04-21T09:12:24.679Z,13.45
2023-04-21T09:14:51.717Z,14.07
2023-04-21T09:17:28.155Z,13.25
2023-04-21T09:19:55.134Z,10.30
2023-04-21T09:22:29.316Z,10.75
2023-04-21T09:25:02.524Z,9.60
2023-04-21T09:27:50.727Z,15.23
2023-04-21T09:30:52.733Z,14.50
2023-04-21T09:33:58.847Z,6.65
2023-04-21T09:36:29.490Z,12.98
2023-04-21T09:41:34.406Z,12.10
2023-04-21T09:44:01.930Z,12.93
2023-04-21T09:46:33.493Z,11.80
2023-04-21T09:49:02.233Z,12.65
2023-04-21T09:51:49.267Z,14.35
2023-04-21T09:56:54.067Z,12.15
2023-04-21T09:59:26.145Z,12.52
2023-04-21T10:01:54.192Z,11.98
2023-04-21T10:04:24.193Z,12.43
2023-04-21T10:06:51.748Z,10.63
2023-04-21T10:09:44.767Z,13.02
2023-04-21T10:12:47.735Z,10.75
2023-04-21T10:15:32.577Z,11.50
2023-04-21T10:18:25.284Z,11.05
2023-04-21T10:20:57.405Z,11.75
2023-04-21T10:23:47.705Z,12.55
2023-04-21T10:26:25.074Z,12.60
2023-04-21T10:29:18.966Z,11.40
2023-04-21T10:32:00.058Z,12.52
2023-04-21T10:34:26.999Z,13.80
2023-04-21T10:36:57.349Z,11.93
2023-04-21T10:39:36.284Z,12.43
2023-04-21T10:42:26.785Z,14.20
2023-04-21T10:45:27.766Z,13.27
2023-04-21T10:48:13.548Z,16.30
2023-04-21T10:51:02.758Z,13.98
2023-04-21T10:53:43.890Z,14.38
2023-04-21T10:56:11.934Z,15.60
2023-04-21T10:58:41.018Z,13.25
2023-04-21T11:01:08.082Z,12.77
2023-04-21T11:03:36.541Z,12.90
2023-04-21T11:06:14.824Z,12.45
2023-04-21T11:08:57.998Z,13.52
2023-04-21T11:11:24.972Z,14.13
2023-04-21T11:13:53.253Z,12.95
2023-04-21T11:16:21.010Z,10.60
2023-04-21T11:18:48.147Z,14.20
2023-04-21T11:21:22.254Z,11.90
2023-04-21T11:23:50.277Z,13.75
2023-04-21T11:26:17.893Z,13.80
2023-04-21T11:29:04.812Z,12.90
2023-04-21T11:31:50.270Z,9.85
2023-04-21T11:34:21.093Z,11.07
2023-04-21T11:36:49.202Z,12.48
2023-04-21T11:39:21.779Z,13.82
2023-04-21T11:41:51.475Z,10.97
2023-04-21T11:44:39.746Z,13.50
2023-04-21T11:47:27.008Z,12.05
2023-04-21T11:50:45.782Z,10.35
2023-04-21T11:53:26.588Z,11.60
2023-04-21T11:55:56.803Z,11.18
2023-04-21T11:58:24.008Z,11.60
2023-04-21T12:00:51.262Z,11.00
2023-04-21T12:03:20.026Z,11.73
2023-04-21T12:05:47.104Z,10.93
2023-04-21T12:08:16.353Z,11.15
2023-04-21T12:10:49.640Z,10.23
2023-04-21T12:13:24.021Z,11.82
2023-04-21T12:15:51.139Z,11.15
2023-04-21T12:18:18.208Z,12.18
2023-04-21T12:20:52.786Z,8.82
2023-04-21T12:23:19.856Z,8.70
2023-04-21T12:25:47.095Z,8.05
2023-04-21T12:28:33.810Z,8.95
2023-04-21T12:31:14.547Z,9.05
2023-04-21T12:34:01.894Z,7.90
2023-04-21T12:36:42.471Z,7.38
2023-04-21T12:39:10.175Z,8.55
2023-04-21T12:41:37.234Z,8.70
2023-04-21T12:44:04.167Z,8.98
2023-04-21T12:46:50.956Z,8.68
2023-04-21T12:49:45.028Z,9.30
2023-04-21T12:52:38.863Z,8.35
2023-04-21T12:55:19.586Z,8.77
2023-04-21T12:57:46.545Z,8.05
2023-04-21T13:00:15.115Z,8.57
2023-04-21T13:02:42.641Z,8.60
2023-04-21T13:05:10.807Z,8.93
2023-04-21T13:07:37.852Z,8.70
2023-04-21T13:10:06.784Z,9.25
2023-04-21T13:12:33.940Z,7.32
2023-04-21T13:15:01.093Z,7.55
2023-04-21T13:17:28.721Z,8.13
2023-04-21T13:19:55.906Z,5.95
2023-04-21T13:22:22.919Z,7.60
2023-04-21T13:25:10.882Z,7.18
2023-04-21T13:28:11.864Z,7.30
2023-04-21T13:30:53.097Z,7.32
2023-04-21T13:33:32.956Z,7.35
2023-04-21T13:36:13.654Z,6.32
2023-04-21T13:38:41.068Z,7.32
2023-04-21T13:41:08.722Z,7.05
2023-04-21T13:43:55.895Z,7.60
2023-04-21T13:46:37.348Z,6.68
2023-04-21T13:49:04.523Z,7.88
2023-04-21T13:51:51.840Z,7.07
2023-04-21T13:54:52.931Z,7.18
2023-04-21T13:57:53.874Z,7.47
2023-04-21T14:00:30.231Z,7.32
2023-04-21T14:02:57.578Z,6.22
2023-04-21T14:05:24.969Z,5.15
2023-04-21T14:07:52.105Z,5.55
2023-04-21T14:10:19.249Z,6.47
2023-04-21T14:12:48.058Z,6.65
2023-04-21T14:15:15.246Z,6.85
2023-04-21T14:17:42.410Z,5.82
2023-04-21T14:20:09.824Z,7.18
2023-04-21T14:22:56.903Z,5.55
2023-04-21T14:25:47.975Z,7.13
2023-04-21T14:28:34.930Z,9.43
2023-04-21T14:31:23.709Z,7.95
2023-04-21T14:34:10.913Z,6.97
2023-04-21T14:36:52.100Z,6.07
2023-04-21T14:39:19.466Z,7.05
2023-04-21T14:41:46.495Z,8.00
2023-04-21T14:44:13.691Z,7.40
2023-04-21T14:47:08.901Z,8.05
2023-04-21T14:49:55.045Z,6.38
2023-04-21T14:52:41.919Z,7.70
2023-04-21T14:55:23.665Z,7.18
2023-04-21T14:58:10.940Z,7.57
2023-04-21T15:01:11.975Z,5.88
2023-04-21T15:03:52.789Z,7.63
2023-04-21T15:06:39.974Z,7.18
2023-04-21T15:09:21.661Z,6.65
2023-04-21T15:11:48.793Z,7.88
2023-04-21T15:14:15.825Z,5.75
2023-04-21T15:16:42.916Z,8.38
2023-04-21T15:19:10.296Z,6.38
2023-04-21T15:21:37.611Z,7.75
2023-04-21T15:24:04.594Z,6.93
2023-04-21T15:26:31.777Z,5.72
2023-04-21T15:29:19.069Z,5.80
2023-04-21T15:31:59.563Z,6.43
2023-04-21T15:34:46.935Z,6.93
2023-04-21T15:37:28.283Z,9.18
2023-04-21T15:39:55.353Z,8.73
2023-04-21T15:42:22.486Z,8.65
2023-04-21T15:44:51.527Z,8.77
2023-04-21T15:47:39.014Z,9.80
2023-04-21T15:50:39.949Z,8.85
2023-04-21T15:53:41.034Z,7.60
2023-04-21T15:56:42.034Z,6.90
2023-04-21T15:59:43.093Z,7.32
2023-04-21T16:02:24.223Z,7.80
2023-04-21T16:04:52.119Z,7.93
2023-04-21T16:07:19.280Z,9.65
2023-04-21T16:09:46.282Z,10.20
2023-04-21T16:12:13.294Z,8.63
2023-04-21T16:15:09.230Z,9.40
2023-04-21T16:18:21.066Z,8.20
2023-04-21T16:21:01.727Z,9.02
2023-04-21T16:23:28.810Z,8.10
2023-04-21T16:25:56.047Z,8.90
2023-04-21T16:28:42.996Z,7.43
2023-04-21T16:31:23.594Z,7.88
2023-04-21T16:34:10.979Z,8.65
2023-04-21T16:36:51.535Z,9.15
2023-04-21T16:39:18.598Z,8.35
2023-04-21T16:41:45.549Z,8.23
2023-04-21T16:44:12.551Z,12.07
2023-04-21T16:47:00.268Z,15.18
2023-04-21T16:50:01.224Z,17.52
2023-04-21T16:53:01.990Z,18.40
2023-04-21T16:55:42.704Z,18.58
2023-04-21T16:58:09.696Z,20.55
2023-04-21T17:00:38.297Z,21.75
2023-04-21T17:03:05.428Z,20.33
2023-04-21T17:05:53.031Z,23.40
2023-04-21T17:08:38.715Z,23.83
2023-04-21T17:11:05.682Z,24.17
2023-04-21T17:13:41.011Z,25.25
2023-04-21T17:16:42.119Z,24.98
2023-04-21T17:19:16.096Z,23.77
2023-04-21T17:21:43.092Z,25.88
2023-04-21T17:24:10.169Z,26.48
2023-04-21T17:26:37.553Z,26.30
2023-04-21T17:29:25.012Z,26.90
2023-04-21T17:32:19.681Z,24.88
2023-04-21T17:35:14.037Z,25.63
2023-04-21T17:37:54.693Z,27.15
2023-04-21T17:40:22.332Z,25.38
2023-04-21T17:42:49.243Z,28.75
2023-04-21T17:45:16.293Z,27.95
2023-04-21T17:47:43.357Z,27.25
2023-04-21T17:50:12.833Z,25.35
2023-04-21T17:52:41.373Z,25.92
2023-04-21T17:55:08.637Z,25.45
2023-04-21T17:57:35.821Z,25.60
2023-04-21T18:00:07.265Z,27.52
2023-04-21T18:02:34.525Z,24.42
2023-04-21T18:05:01.700Z,26.00
2023-04-21T18:07:28.899Z,26.23
2023-04-21T18:09:56.477Z,29.02
2023-04-21T18:12:44.040Z,25.85
2023-04-21T18:15:24.926Z,26.63
2023-04-21T18:17:53.378Z,23.75
2023-04-21T18:20:20.791Z,25.15
2023-04-21T18:22:49.322Z,24.83
2023-04-21T18:25:20.265Z,26.23
2023-04-21T18:28:12.101Z,23.73
2023-04-21T18:30:53.078Z,25.80
2023-04-21T18:33:20.099Z,26.90
2023-04-21T18:35:47.167Z,26.45
2023-04-21T18:38:14.190Z,26.42
2023-04-21T18:40:41.678Z,26.77
2023-04-21T18:43:10.232Z,29.10
2023-04-21T18:45:38.787Z,28.88
2023-04-21T18:48:06.606Z,30.08
2023-04-21T18:50:40.991Z,30.02
2023-04-21T18:53:28.146Z,27.05
2023-04-21T18:56:29.184Z,29.90
2023-04-21T18:59:30.146Z,27.85
2023-04-21T19:02:13.253Z,31.55
2023-04-21T19:04:40.870Z,30.38
2023-04-21T19:07:11.223Z,29.33
2023-04-21T19:09:38.639Z,34.28
2023-04-21T19:12:19.232Z,35.45
2023-04-21T19:14:59.991Z,31.17
2023-04-21T19:17:48.177Z,35.33
2023-04-21T19:20:29.832Z,30.60
2023-04-21T19:22:57.012Z,30.73
2023-04-21T19:25:24.222Z,30.17
2023-04-21T19:28:11.155Z,28.30
2023-04-21T19:30:52.323Z,34.85
2023-04-21T19:33:22.559Z,33.88
2023-04-21T19:35:49.603Z,31.05
2023-04-21T19:38:16.604Z,29.75
2023-04-21T19:40:45.142Z,30.48
2023-04-21T19:43:12.894Z,32.78
2023-04-21T19:46:01.145Z,31.40
2023-04-21T19:48:42.812Z,30.42
2023-04-21T19:51:09.851Z,30.65
2023-04-21T19:54:10.093Z,28.15
2023-04-21T19:57:12.120Z,28.23
2023-04-21T20:00:16.145Z,30.95
2023-04-21T20:02:57.032Z,31.90
2023-04-21T20:05:23.967Z,31.27
2023-04-21T20:07:51.108Z,30.88
2023-04-21T20:10:38.116Z,31.27
2023-04-21T20:13:28.514Z,30.67
2023-04-21T20:15:57.132Z,29.63
2023-04-21T20:18:44.157Z,31.05
2023-04-21T20:21:24.803Z,29.75
2023-04-21T20:23:51.718Z,32.63
2023-04-21T20:26:18.709Z,32.85
2023-04-21T20:29:07.161Z,30.52
2023-04-21T20:31:47.856Z,31.67
2023-04-21T20:34:35.154Z,32.25
2023-04-21T20:37:16.245Z,31.17
2023-04-21T20:39:43.158Z,31.65
2023-04-21T20:42:13.451Z,34.15
2023-04-21T20:44:44.201Z,34.38
2023-04-21T20:47:31.165Z,34.45
2023-04-21T20:50:11.985Z,35.28
2023-04-21T20:52:59.180Z,35.15
2023-04-21T20:55:39.759Z,36.20
2023-04-21T20:58:27.180Z,39.20
2023-04-21T21:01:30.745Z,37.38
2023-04-21T21:04:32.256Z,34.95
2023-04-21T21:07:13.147Z,35.47
2023-04-21T21:09:40.513Z,35.60
2023-04-21T21:12:28.183Z,33.17
2023-04-21T21:15:09.191Z,34.83
2023-04-21T21:17:36.300Z,32.65
2023-04-21T21:20:03.353Z,33.85
2023-04-21T21:22:30.747Z,33.13
2023-04-21T21:24:57.922Z,32.85
2023-04-21T21:27:45.267Z,32.90
2023-04-21T21:30:39.299Z,33.33
2023-04-21T21:33:31.418Z,33.70
2023-04-21T21:35:58.291Z,34.05
2023-04-21T21:38:25.294Z,32.65
2023-04-21T21:40:52.254Z,33.22
2023-04-21T21:43:19.199Z,32.67
2023-04-21T21:45:46.138Z,32.25
2023-04-21T21:48:13.357Z,29.95
2023-04-21T21:50:40.626Z,34.95
2023-04-21T21:53:07.565Z,31.50
2023-04-21T21:55:34.464Z,31.92
2023-04-21T21:58:03.715Z,31.02
2023-04-21T22:00:30.996Z,30.80
2023-04-21T22:02:58.727Z,27.70
2023-04-21T22:05:25.816Z,29.83
2023-04-21T22:07:53.719Z,29.42
2023-04-21T22:10:41.271Z,28.30
2023-04-21T22:13:42.225Z,27.42
2023-04-21T22:16:43.191Z,28.40
2023-04-21T22:19:19.264Z,26.55
2023-04-21T22:21:46.493Z,26.20
2023-04-21T22:24:13.572Z,26.20
2023-04-21T22:26:40.797Z,25.20
2023-04-21T22:29:28.204Z,24.08
2023-04-21T22:32:09.795Z,25.10
2023-04-21T22:34:50.192Z,23.63
2023-04-21T22:37:30.799Z,21.67
2023-04-21T22:39:57.817Z,22.08
2023-04-21T22:42:24.937Z,20.95
2023-04-21T22:44:51.889Z,21.55
2023-04-21T22:47:18.992Z,21.38
2023-04-21T22:49:46.202Z,19.20
2023-04-21T22:52:33.195Z,20.98
2023-04-21T22:55:13.782Z,19.60
2023-04-21T22:57:40.839Z,19.13
2023-04-21T23:00:28.257Z,20.55
2023-04-21T23:03:08.906Z,19.58
2023-04-21T23:05:56.225Z,20.05
2023-04-21T23:08:36.849Z,22.00
2023-04-21T23:11:17.391Z,20.05
2023-04-21T23:13:57.840Z,20.17
2023-04-21T23:16:24.816Z,20.02
2023-04-21T23:18:51.694Z,20.10
2023-04-21T23:21:18.685Z,21.08
2023-04-21T23:23:45.591Z,19.67
2023-04-21T23:26:12.524Z,18.17
2023-04-21T23:28:59.265Z,18.80
2023-04-21T23:32:00.352Z,20.42
2023-04-21T23:34:40.809Z,18.88
2023-04-21T23:37:08.050Z,18.98
2023-04-21T23:39:35.080Z,19.92
2023-04-21T23:42:04.907Z,18.98
2023-04-21T23:44:31.813Z,20.20
2023-04-21T23:46:58.845Z,19.17
2023-04-21T23:49:25.855Z,20.52
2023-04-21T23:51:52.966Z,20.95
2023-04-21T23:54:19.951Z,18.30
2023-04-21T23:56:46.869Z,19.40
2023-04-21T23:59:13.731Z,20.70
